createdAt,value
2023-01-18T01:45:14.829Z,101066.75
2023-01-18T01:47:46.849Z,101072.25
2023-01-18T01:50:21.307Z,101067.63
2023-01-18T01:52:50.371Z,101058.06
2023-01-18T01:55:38.645Z,101062.28
2023-01-18T01:58:14.572Z,101068.13
2023-01-18T02:00:43.837Z,101057.78
2023-01-18T02:03:20.096Z,101067.88
2023-01-18T02:06:07.507Z,101061.34
2023-01-18T02:08:36.496Z,101063.03
2023-01-18T02:11:07.392Z,101060.25
2023-01-18T02:13:36.239Z,101064.16
2023-01-18T02:16:19.812Z,101049.66
2023-01-18T02:19:23.369Z,101047.44
2023-01-18T02:22:22.626Z,101050.88
2023-01-18T02:25:29.068Z,101052.88
2023-01-18T02:28:20.039Z,101047.91
2023-01-18T02:31:05.430Z,101054.56
2023-01-18T02:33:41.548Z,101060.59
2023-01-18T02:36:16.420Z,101067.03
2023-01-18T02:38:49.648Z,101069.00
2023-01-18T02:42:05.434Z,101054.94
2023-01-18T02:45:06.290Z,101056.47
2023-01-18T02:47:37.474Z,101072.38
2023-01-18T02:50:06.051Z,101068.72
2023-01-18T02:53:06.132Z,101060.25
2023-01-18T02:55:47.300Z,101062.66
2023-01-18T02:58:23.918Z,101066.63
2023-01-18T03:01:03.670Z,101069.13
2023-01-18T03:03:32.286Z,101065.97
2023-01-18T03:06:03.630Z,101068.19
2023-01-18T03:08:31.650Z,101075.22
2023-01-18T03:11:19.041Z,101079.81
2023-01-18T03:14:12.819Z,101079.75
2023-01-18T03:17:03.836Z,101077.28
2023-01-18T03:20:06.279Z,101082.28
2023-01-18T03:23:03.390Z,101100.00
2023-01-18T03:25:39.245Z,101095.34
2023-01-18T03:28:46.591Z,101090.50
2023-01-18T03:31:59.316Z,101091.56
2023-01-18T03:35:02.263Z,101098.41
2023-01-18T03:37:38.462Z,101099.31
2023-01-18T03:40:18.451Z,101103.75
2023-01-18T03:43:05.467Z,101103.84
2023-01-18T03:45:44.130Z,101103.34
2023-01-18T03:48:27.035Z,101106.09
2023-01-18T03:51:11.336Z,101112.88
2023-01-18T03:54:15.779Z,101105.16
2023-01-18T03:57:00.464Z,101116.69
2023-01-18T03:59:35.348Z,101115.69
2023-01-18T04:02:06.989Z,101103.06
2023-01-18T04:04:36.182Z,101107.97
2023-01-18T04:07:06.296Z,101112.19
2023-01-18T04:09:37.751Z,101113.28
2023-01-18T04:12:07.261Z,101116.22
2023-01-18T04:14:35.727Z,101118.31
2023-01-18T04:17:03.680Z,101123.88
2023-01-18T04:19:32.785Z,101126.69
2023-01-18T04:22:01.913Z,101124.25
2023-01-18T04:24:30.843Z,101117.38
2023-01-18T04:27:00.434Z,101119.47
2023-01-18T04:29:28.838Z,101131.56
2023-01-18T04:31:56.796Z,101127.41
2023-01-18T04:34:26.192Z,101124.22
2023-01-18T04:36:56.342Z,101116.16
2023-01-18T04:39:24.766Z,101123.91
2023-01-18T04:41:53.982Z,101117.56
2023-01-18T04:44:23.822Z,101118.69
2023-01-18T04:46:52.011Z,101123.97
2023-01-18T04:49:21.184Z,101131.63
2023-01-18T04:51:52.711Z,101126.28
2023-01-18T04:54:21.258Z,101133.28
2023-01-18T04:56:49.724Z,101130.41
2023-01-18T04:59:19.181Z,101123.66
2023-01-18T05:01:47.955Z,101126.84
2023-01-18T05:04:19.161Z,101137.25
2023-01-18T05:06:52.142Z,101146.66
2023-01-18T05:09:22.154Z,101139.84
2023-01-18T05:11:53.271Z,101140.34
2023-01-18T05:14:23.375Z,101144.00
2023-01-18T05:16:53.240Z,101149.16
2023-01-18T05:19:22.661Z,101150.00
2023-01-18T05:21:52.074Z,101148.16
2023-01-18T05:24:22.460Z,101146.56
2023-01-18T05:26:53.013Z,101149.56
2023-01-18T05:29:21.788Z,101151.31
2023-01-18T05:31:53.133Z,101148.28
2023-01-18T05:34:24.343Z,101161.13
2023-01-18T05:39:38.474Z,101163.09
2023-01-18T05:42:09.212Z,101171.81
2023-01-18T05:44:39.953Z,101169.63
2023-01-18T05:47:08.865Z,101169.13
2023-01-18T05:49:38.734Z,101165.38
2023-01-18T05:52:10.836Z,101163.59
2023-01-18T05:54:40.152Z,101169.06
2023-01-18T05:57:09.002Z,101176.09
2023-01-18T05:59:39.778Z,101185.66
2023-01-18T06:02:09.553Z,101171.59
2023-01-18T06:04:40.999Z,101157.53
2023-01-18T06:07:12.370Z,101177.25
2023-01-18T06:09:43.155Z,101169.22
2023-01-18T06:12:12.504Z,101169.81
2023-01-18T06:14:42.955Z,101165.66
2023-01-18T06:19:58.431Z,101175.75
2023-01-18T06:22:28.138Z,101179.78
2023-01-18T06:24:59.811Z,101179.34
2023-01-18T06:27:53.790Z,101183.56
2023-01-18T06:30:30.520Z,101177.00
2023-01-18T06:33:12.526Z,101159.84
2023-01-18T06:35:44.097Z,101167.63
2023-01-18T06:38:23.442Z,101159.28
2023-01-18T06:40:55.990Z,101169.97
2023-01-18T06:43:25.078Z,101161.16
2023-01-18T06:45:58.948Z,101157.91
2023-01-18T06:48:31.424Z,101167.72
2023-01-18T06:51:09.300Z,101171.78
2023-01-18T06:53:39.681Z,101171.53
2023-01-18T06:56:10.633Z,101184.56
2023-01-18T06:58:39.681Z,101186.47
2023-01-18T07:01:09.137Z,101177.38
2023-01-18T07:03:39.278Z,101176.94
2023-01-18T07:06:08.197Z,101178.56
2023-01-18T07:08:36.982Z,101179.69
2023-01-18T07:11:08.548Z,101185.25
2023-01-18T07:13:44.167Z,101191.81
2023-01-18T07:16:24.357Z,101183.69
2023-01-18T07:18:54.114Z,101177.84
2023-01-18T07:21:30.000Z,101188.91
2023-01-18T07:24:09.091Z,101183.63
2023-01-18T07:26:40.460Z,101172.00
2023-01-18T07:29:09.696Z,101179.13
2023-01-18T07:31:39.059Z,101185.44
2023-01-18T07:34:18.715Z,101197.69
2023-01-18T07:36:57.308Z,101207.13
2023-01-18T07:39:27.541Z,101211.78
2023-01-18T07:42:03.803Z,101223.41
2023-01-18T07:44:33.777Z,101223.59
2023-01-18T07:47:05.047Z,101221.19
2023-01-18T07:49:36.830Z,101224.00
2023-01-18T07:52:06.867Z,101231.22
2023-01-18T13:15:36.625Z,101175.69
2023-01-18T13:21:49.866Z,101172.31
2023-01-18T13:24:49.580Z,101172.00
2023-01-18T13:30:19.844Z,101174.69
2023-01-18T13:32:52.282Z,101173.56
2023-01-18T13:36:08.767Z,101170.22
2023-01-18T13:38:52.041Z,101174.94
2023-01-18T13:41:25.107Z,101172.22
2023-01-18T13:44:29.152Z,101169.19
2023-01-18T13:47:01.042Z,101176.78
2023-01-18T13:49:46.640Z,101178.00
2023-01-18T13:52:46.461Z,101186.72
2023-01-18T13:55:34.893Z,101179.31
2023-01-18T13:58:04.544Z,101186.34
2023-01-18T14:00:38.471Z,101184.69
2023-01-18T14:03:20.976Z,101189.75
2023-01-18T14:05:59.469Z,101183.56
2023-01-18T14:08:35.540Z,101187.75
2023-01-18T14:11:28.403Z,101182.06
2023-01-18T14:14:25.401Z,101175.41
2023-01-18T14:16:58.453Z,101182.13
2023-01-18T14:19:37.230Z,101180.72
2023-01-18T14:22:38.389Z,101183.28
2023-01-18T14:25:19.464Z,101186.63
2023-01-18T14:28:17.603Z,101191.97
2023-01-18T14:30:51.149Z,101200.69
2023-01-18T14:33:34.924Z,101196.19
2023-01-18T14:36:25.985Z,101205.75
2023-01-18T14:39:13.627Z,101199.59
2023-01-18T14:41:50.801Z,101200.09
2023-01-18T14:44:56.960Z,101208.00
2023-01-18T14:47:32.758Z,101199.59
2023-01-18T14:50:13.275Z,101210.25
2023-01-18T14:52:43.487Z,101203.78
2023-01-18T14:55:29.830Z,101207.19
2023-01-18T14:58:14.006Z,101217.88
2023-01-18T15:00:48.428Z,101219.53
2023-01-18T15:03:49.722Z,101215.22
2023-01-18T15:06:25.380Z,101221.13
2023-01-18T15:08:55.232Z,101224.88
2023-01-18T15:11:27.048Z,101231.97
2023-01-18T15:14:01.048Z,101228.03
2023-01-18T15:16:31.737Z,101226.63
2023-01-18T15:19:05.782Z,101219.88
2023-01-18T15:21:36.482Z,101231.13
2023-01-18T15:24:22.253Z,101223.25
2023-01-18T15:27:03.145Z,101225.63
2023-01-18T15:29:36.773Z,101225.06
2023-01-18T15:32:22.916Z,101222.13
2023-01-18T15:34:55.194Z,101219.06
2023-01-18T15:37:34.535Z,101216.38
2023-01-18T15:40:31.348Z,101218.75
2023-01-18T15:43:27.346Z,101211.16
2023-01-18T15:46:11.204Z,101219.00
2023-01-18T15:49:03.321Z,101222.97
2023-01-18T15:52:00.103Z,101229.16
2023-01-18T15:54:41.619Z,101220.03
2023-01-18T15:57:22.819Z,101219.47
2023-01-18T15:59:53.680Z,101224.38
2023-01-18T16:02:24.194Z,101213.72
2023-01-18T16:05:32.410Z,101219.06
2023-01-18T16:08:21.509Z,101220.75
2023-01-18T16:10:56.808Z,101222.69
2023-01-18T16:13:37.762Z,101230.97
2023-01-18T16:16:38.263Z,101238.84
2023-01-18T16:19:32.115Z,101253.34
2023-01-18T16:22:06.558Z,101242.66
2023-01-18T16:25:25.288Z,101238.28
2023-01-18T16:28:12.654Z,101239.97
2023-01-18T16:30:54.623Z,101243.78
2023-01-18T19:47:42.236Z,101291.28
2023-01-18T19:50:11.376Z,101294.13
2023-01-18T19:52:40.403Z,101291.00
2023-01-18T19:55:10.151Z,101284.53
2023-01-18T19:57:40.257Z,101303.53
2023-01-18T20:00:14.147Z,101288.06
2023-01-18T20:02:51.734Z,101307.59
2023-01-18T20:05:21.858Z,101306.78
2023-01-18T20:07:56.947Z,101304.22
2023-01-18T20:10:27.915Z,101299.03
2023-01-18T20:12:59.667Z,101302.53
2023-01-18T20:15:29.123Z,101307.34
2023-01-18T20:18:01.365Z,101309.03
2023-01-18T20:20:34.031Z,101298.06
2023-01-18T20:23:06.337Z,101297.47
2023-01-18T20:25:37.673Z,101306.19
2023-01-18T20:28:10.879Z,101320.69
2023-01-18T20:30:47.343Z,101331.94
2023-01-18T20:33:17.308Z,101336.47
2023-01-18T20:35:47.346Z,101348.25
2023-01-18T20:38:24.127Z,101358.97
2023-01-18T20:40:54.762Z,101353.75
2023-01-18T20:43:22.527Z,101365.00
2023-01-18T20:46:12.533Z,101351.78
2023-01-18T20:48:43.135Z,101342.34
2023-01-18T20:51:15.010Z,101338.84
2023-01-18T20:53:43.655Z,101338.25
2023-01-18T20:56:28.202Z,101350.63
2023-01-18T20:58:58.490Z,101350.06
2023-01-18T21:01:33.213Z,101350.63
2023-01-18T21:04:04.607Z,101351.19
2023-01-18T21:06:34.157Z,101343.00
2023-01-18T21:09:03.065Z,101368.59
2023-01-18T21:11:33.078Z,101361.03
2023-01-18T21:14:04.358Z,101363.97
2023-01-18T21:16:35.577Z,101366.91
2023-01-18T21:19:05.166Z,101357.06
2023-01-18T21:21:34.362Z,101330.94
2023-01-18T21:24:03.407Z,101327.41
2023-01-18T21:26:32.267Z,101323.75
2023-01-18T21:29:03.427Z,101316.72
2023-01-18T21:31:32.229Z,101328.56
2023-01-18T21:34:00.476Z,101323.34
2023-01-18T21:36:29.134Z,101322.06
2023-01-18T21:39:00.187Z,101330.13
2023-01-18T21:41:52.625Z,101333.75
2023-01-18T21:44:42.312Z,101313.66
2023-01-18T21:47:13.207Z,101316.88
2023-01-18T21:50:21.713Z,101313.81
2023-01-18T21:53:09.711Z,101312.97
2023-01-18T21:55:40.365Z,101324.34
2023-01-18T21:58:31.586Z,101324.78
2023-01-18T22:01:00.844Z,101331.66
2023-01-18T22:03:29.097Z,101322.94
2023-01-18T22:06:00.980Z,101325.34
2023-01-18T22:08:31.484Z,101323.22
2023-01-18T22:11:03.803Z,101316.03
2023-01-18T22:13:34.947Z,101310.84
2023-01-18T22:16:05.035Z,101324.78
2023-01-18T22:18:35.066Z,101315.34
2023-01-18T22:21:03.260Z,101318.56
2023-01-18T22:23:32.146Z,101316.75
2023-01-18T22:26:01.761Z,101317.19
2023-01-18T22:28:30.196Z,101317.75
2023-01-18T22:31:06.555Z,101314.09
2023-01-18T22:33:46.274Z,101312.53
2023-01-18T22:36:17.937Z,101312.41
2023-01-18T22:38:52.844Z,101316.59
2023-01-18T22:41:45.602Z,101311.56
2023-01-18T22:44:34.218Z,101333.34
2023-01-18T22:47:02.939Z,101334.34
2023-01-18T22:49:46.318Z,101316.03
2023-01-18T22:55:17.599Z,101323.09
2023-01-18T23:00:58.979Z,101312.81
2023-01-18T23:21:41.149Z,101343.31
2023-01-18T23:24:24.522Z,101334.19
2023-01-18T23:27:00.675Z,101322.81
2023-01-18T23:29:34.194Z,101326.47
2023-01-18T23:32:08.011Z,101330.69
2023-01-18T23:34:50.464Z,101344.75
2023-01-18T23:37:24.124Z,101343.91
2023-01-18T23:43:41.300Z,101347.00
2023-01-18T23:46:33.154Z,101339.38
2023-01-18T23:49:25.468Z,101351.19
2023-01-18T23:52:19.587Z,101343.06
2023-01-18T23:54:50.823Z,101351.22
2023-01-18T23:57:19.181Z,101346.72
2023-01-18T23:59:48.100Z,101353.75
